sensor_id;sensor_type;location;lat;lon;timestamp;temperature;humidity
6672;DHT22;3372;48.690;12.362;2022-12-05T00:01:58;6.80;78.10
6672;DHT22;3372;48.690;12.362;2022-12-05T00:04:23;6.60;77.30
6672;DHT22;3372;48.690;12.362;2022-12-05T00:06:49;6.80;77.60
6672;DHT22;3372;48.690;12.362;2022-12-05T00:09:15;6.50;77.20
6672;DHT22;3372;48.690;12.362;2022-12-05T00:11:42;6.70;76.90
6672;DHT22;3372;48.690;12.362;2022-12-05T00:14:09;6.30;76.80
6672;DHT22;3372;48.690;12.362;2022-12-05T00:16:37;6.40;78.90
6672;DHT22;3372;48.690;12.362;2022-12-05T00:19:04;6.30;78.80
6672;DHT22;3372;48.690;12.362;2022-12-05T00:21:32;6.30;78.70
6672;DHT22;3372;48.690;12.362;2022-12-05T00:23:59;6.40;78.90
6672;DHT22;3372;48.690;12.362;2022-12-05T00:26:26;6.40;78.90
6672;DHT22;3372;48.690;12.362;2022-12-05T00:28:52;6.40;78.90
6672;DHT22;3372;48.690;12.362;2022-12-05T00:31:21;6.40;79.00
6672;DHT22;3372;48.690;12.362;2022-12-05T00:33:47;6.60;79.10
6672;DHT22;3372;48.690;12.362;2022-12-05T00:36:24;6.60;78.50
6672;DHT22;3372;48.690;12.362;2022-12-05T00:38:51;6.50;79.00
6672;DHT22;3372;48.690;12.362;2022-12-05T00:41:23;6.20;78.80
6672;DHT22;3372;48.690;12.362;2022-12-05T00:43:50;6.30;78.80
6672;DHT22;3372;48.690;12.362;2022-12-05T00:46:21;6.30;78.70
6672;DHT22;3372;48.690;12.362;2022-12-05T00:48:48;6.40;79.60
6672;DHT22;3372;48.690;12.362;2022-12-05T00:51:17;6.30;79.20
6672;DHT22;3372;48.690;12.362;2022-12-05T00:53:44;6.50;81.20
6672;DHT22;3372;48.690;12.362;2022-12-05T00:56:15;6.30;79.30
6672;DHT22;3372;48.690;12.362;2022-12-05T00:58:42;6.50;78.60
6672;DHT22;3372;48.690;12.362;2022-12-05T01:01:13;6.60;77.40
6672;DHT22;3372;48.690;12.362;2022-12-05T01:03:41;6.50;78.50
6672;DHT22;3372;48.690;12.362;2022-12-05T01:06:07;6.60;78.30
6672;DHT22;3372;48.690;12.362;2022-12-05T01:08:34;6.50;77.90
6672;DHT22;3372;48.690;12.362;2022-12-05T01:11:00;6.60;77.40
6672;DHT22;3372;48.690;12.362;2022-12-05T01:13:27;6.30;77.60
6672;DHT22;3372;48.690;12.362;2022-12-05T01:15:53;6.30;77.40
6672;DHT22;3372;48.690;12.362;2022-12-05T01:18:19;6.50;77.70
6672;DHT22;3372;48.690;12.362;2022-12-05T01:20:46;6.50;77.30
6672;DHT22;3372;48.690;12.362;2022-12-05T01:23:11;6.40;77.80
6672;DHT22;3372;48.690;12.362;2022-12-05T01:25:41;6.40;77.70
6672;DHT22;3372;48.690;12.362;2022-12-05T01:28:07;6.50;77.40
6672;DHT22;3372;48.690;12.362;2022-12-05T01:30:40;6.30;77.70
6672;DHT22;3372;48.690;12.362;2022-12-05T01:33:07;6.50;77.70
6672;DHT22;3372;48.690;12.362;2022-12-05T01:35:34;6.60;77.80
6672;DHT22;3372;48.690;12.362;2022-12-05T01:38:00;6.40;77.00
6672;DHT22;3372;48.690;12.362;2022-12-05T01:40:26;6.40;77.30
6672;DHT22;3372;48.690;12.362;2022-12-05T01:42:52;6.60;77.90
6672;DHT22;3372;48.690;12.362;2022-12-05T01:45:35;6.50;77.40
6672;DHT22;3372;48.690;12.362;2022-12-05T01:48:03;6.30;77.60
6672;DHT22;3372;48.690;12.362;2022-12-05T01:50:30;6.40;77.00
6672;DHT22;3372;48.690;12.362;2022-12-05T01:52:56;6.30;78.10
6672;DHT22;3372;48.690;12.362;2022-12-05T01:55:22;6.50;78.70
6672;DHT22;3372;48.690;12.362;2022-12-05T01:57:48;6.40;78.90
6672;DHT22;3372;48.690;12.362;2022-12-05T02:00:16;6.20;78.70
6672;DHT22;3372;48.690;12.362;2022-12-05T02:02:48;6.40;78.90
6672;DHT22;3372;48.690;12.362;2022-12-05T02:05:32;6.40;77.40
6672;DHT22;3372;48.690;12.362;2022-12-05T02:08:00;6.20;77.20
6672;DHT22;3372;48.690;12.362;2022-12-05T02:10:29;6.30;77.20
6672;DHT22;3372;48.690;12.362;2022-12-05T02:13:04;6.60;77.60
6672;DHT22;3372;48.690;12.362;2022-12-05T02:35:01;6.50;76.60
6672;DHT22;3372;48.690;12.362;2022-12-05T02:40:20;6.50;76.40
6672;DHT22;3372;48.690;12.362;2022-12-05T02:43:11;6.40;76.50
6672;DHT22;3372;48.690;12.362;2022-12-05T02:45:40;6.50;76.00
6672;DHT22;3372;48.690;12.362;2022-12-05T02:48:10;6.60;76.50
6672;DHT22;3372;48.690;12.362;2022-12-05T02:50:38;6.60;76.20
6672;DHT22;3372;48.690;12.362;2022-12-05T02:53:10;6.50;76.20
6672;DHT22;3372;48.690;12.362;2022-12-05T02:55:38;6.50;76.60
6672;DHT22;3372;48.690;12.362;2022-12-05T02:58:08;6.60;76.10
6672;DHT22;3372;48.690;12.362;2022-12-05T03:00:38;6.70;76.00
6672;DHT22;3372;48.690;12.362;2022-12-05T03:03:14;6.60;75.50
6672;DHT22;3372;48.690;12.362;2022-12-05T03:06:12;6.50;75.80
6672;DHT22;3372;48.690;12.362;2022-12-05T03:11:41;6.60;75.20
6672;DHT22;3372;48.690;12.362;2022-12-05T03:14:15;6.60;74.70
6672;DHT22;3372;48.690;12.362;2022-12-05T03:16:49;6.50;74.30
6672;DHT22;3372;48.690;12.362;2022-12-05T03:19:20;6.50;74.10
6672;DHT22;3372;48.690;12.362;2022-12-05T03:22:04;6.40;75.30
6672;DHT22;3372;48.690;12.362;2022-12-05T03:24:36;6.50;75.70
6672;DHT22;3372;48.690;12.362;2022-12-05T03:27:25;6.30;75.10
6672;DHT22;3372;48.690;12.362;2022-12-05T03:29:56;6.40;75.00
6672;DHT22;3372;48.690;12.362;2022-12-05T03:37:59;6.70;74.00
6672;DHT22;3372;48.690;12.362;2022-12-05T03:40:48;6.50;73.90
6672;DHT22;3372;48.690;12.362;2022-12-05T03:43:28;6.70;73.30
6672;DHT22;3372;48.690;12.362;2022-12-05T03:49:02;6.70;72.50
6672;DHT22;3372;48.690;12.362;2022-12-05T03:54:42;6.70;73.50
6672;DHT22;3372;48.690;12.362;2022-12-05T03:59:37;6.70;72.60
6672;DHT22;3372;48.690;12.362;2022-12-05T04:02:08;6.50;72.60
6672;DHT22;3372;48.690;12.362;2022-12-05T04:04:46;6.50;72.50
6672;DHT22;3372;48.690;12.362;2022-12-05T04:07:13;6.50;72.80
6672;DHT22;3372;48.690;12.362;2022-12-05T04:09:51;6.40;72.70
6672;DHT22;3372;48.690;12.362;2022-12-05T04:12:23;6.40;72.90
6672;DHT22;3372;48.690;12.362;2022-12-05T04:14:53;6.30;72.60
6672;DHT22;3372;48.690;12.362;2022-12-05T04:17:51;6.30;72.80
6672;DHT22;3372;48.690;12.362;2022-12-05T04:23:09;6.50;72.90
6672;DHT22;3372;48.690;12.362;2022-12-05T04:31:23;6.50;71.60
6672;DHT22;3372;48.690;12.362;2022-12-05T04:33:54;6.50;72.20
6672;DHT22;3372;48.690;12.362;2022-12-05T04:36:24;6.50;71.70
6672;DHT22;3372;48.690;12.362;2022-12-05T04:39:05;6.40;70.70
6672;DHT22;3372;48.690;12.362;2022-12-05T04:41:49;6.60;71.30
6672;DHT22;3372;48.690;12.362;2022-12-05T04:44:18;6.50;72.20
6672;DHT22;3372;48.690;12.362;2022-12-05T04:46:46;6.40;73.10
6672;DHT22;3372;48.690;12.362;2022-12-05T04:49:24;6.30;72.30
6672;DHT22;3372;48.690;12.362;2022-12-05T04:51:53;6.40;72.00
6672;DHT22;3372;48.690;12.362;2022-12-05T04:54:45;6.30;72.20
6672;DHT22;3372;48.690;12.362;2022-12-05T04:57:18;6.20;72.10
6672;DHT22;3372;48.690;12.362;2022-12-05T04:59:45;6.20;71.60
6672;DHT22;3372;48.690;12.362;2022-12-05T05:02:14;6.30;72.60
6672;DHT22;3372;48.690;12.362;2022-12-05T05:04:46;6.20;72.30
6672;DHT22;3372;48.690;12.362;2022-12-05T05:07:12;6.20;72.50
6672;DHT22;3372;48.690;12.362;2022-12-05T05:09:39;6.40;71.80
6672;DHT22;3372;48.690;12.362;2022-12-05T05:12:05;6.30;72.40
6672;DHT22;3372;48.690;12.362;2022-12-05T05:14:31;6.30;71.30
6672;DHT22;3372;48.690;12.362;2022-12-05T05:16:57;6.30;71.40
6672;DHT22;3372;48.690;12.362;2022-12-05T05:19:23;6.00;72.40
6672;DHT22;3372;48.690;12.362;2022-12-05T05:21:50;6.30;73.00
6672;DHT22;3372;48.690;12.362;2022-12-05T05:24:16;6.30;72.30
6672;DHT22;3372;48.690;12.362;2022-12-05T05:26:44;6.40;71.80
6672;DHT22;3372;48.690;12.362;2022-12-05T05:29:11;6.20;71.40
6672;DHT22;3372;48.690;12.362;2022-12-05T05:31:37;6.20;71.70
6672;DHT22;3372;48.690;12.362;2022-12-05T05:34:04;6.40;72.10
6672;DHT22;3372;48.690;12.362;2022-12-05T05:36:30;6.20;71.00
6672;DHT22;3372;48.690;12.362;2022-12-05T05:38:57;6.40;71.10
6672;DHT22;3372;48.690;12.362;2022-12-05T05:41:26;6.10;70.10
6672;DHT22;3372;48.690;12.362;2022-12-05T05:43:53;6.40;70.60
6672;DHT22;3372;48.690;12.362;2022-12-05T05:46:21;6.30;70.90
6672;DHT22;3372;48.690;12.362;2022-12-05T05:48:47;6.20;70.00
6672;DHT22;3372;48.690;12.362;2022-12-05T05:51:14;6.10;69.60
6672;DHT22;3372;48.690;12.362;2022-12-05T05:53:40;6.30;70.40
6672;DHT22;3372;48.690;12.362;2022-12-05T05:56:08;6.30;71.70
6672;DHT22;3372;48.690;12.362;2022-12-05T05:58:34;6.30;70.20
6672;DHT22;3372;48.690;12.362;2022-12-05T06:01:10;6.40;69.50
6672;DHT22;3372;48.690;12.362;2022-12-05T06:03:37;6.50;70.30
6672;DHT22;3372;48.690;12.362;2022-12-05T06:06:05;6.50;69.80
6672;DHT22;3372;48.690;12.362;2022-12-05T06:08:36;6.30;69.80
6672;DHT22;3372;48.690;12.362;2022-12-05T06:11:10;6.20;70.10
6672;DHT22;3372;48.690;12.362;2022-12-05T06:13:36;6.20;69.80
6672;DHT22;3372;48.690;12.362;2022-12-05T06:16:04;6.20;70.30
6672;DHT22;3372;48.690;12.362;2022-12-05T06:18:30;6.20;70.10
6672;DHT22;3372;48.690;12.362;2022-12-05T06:20:57;6.20;69.60
6672;DHT22;3372;48.690;12.362;2022-12-05T06:23:23;6.40;70.50
6672;DHT22;3372;48.690;12.362;2022-12-05T06:25:51;6.30;69.90
6672;DHT22;3372;48.690;12.362;2022-12-05T06:28:18;6.40;70.10
6672;DHT22;3372;48.690;12.362;2022-12-05T06:30:44;6.40;69.90
6672;DHT22;3372;48.690;12.362;2022-12-05T06:33:10;6.20;69.60
6672;DHT22;3372;48.690;12.362;2022-12-05T06:35:36;6.20;70.00
6672;DHT22;3372;48.690;12.362;2022-12-05T06:38:02;6.20;69.70
6672;DHT22;3372;48.690;12.362;2022-12-05T06:40:28;6.30;69.70
6672;DHT22;3372;48.690;12.362;2022-12-05T06:42:54;6.30;69.30
6672;DHT22;3372;48.690;12.362;2022-12-05T06:45:19;6.20;69.20
6672;DHT22;3372;48.690;12.362;2022-12-05T06:47:45;6.00;69.30
6672;DHT22;3372;48.690;12.362;2022-12-05T06:50:11;6.20;68.60
6672;DHT22;3372;48.690;12.362;2022-12-05T06:52:36;6.10;69.10
6672;DHT22;3372;48.690;12.362;2022-12-05T06:55:02;6.10;69.10
6672;DHT22;3372;48.690;12.362;2022-12-05T06:57:28;6.00;70.00
6672;DHT22;3372;48.690;12.362;2022-12-05T06:59:53;5.90;69.70
6672;DHT22;3372;48.690;12.362;2022-12-05T07:02:39;6.30;69.90
6672;DHT22;3372;48.690;12.362;2022-12-05T07:05:07;6.10;69.10
6672;DHT22;3372;48.690;12.362;2022-12-05T07:07:33;6.10;67.00
6672;DHT22;3372;48.690;12.362;2022-12-05T07:09:58;6.30;68.60
6672;DHT22;3372;48.690;12.362;2022-12-05T07:12:24;6.10;68.30
6672;DHT22;3372;48.690;12.362;2022-12-05T07:14:49;5.90;67.00
6672;DHT22;3372;48.690;12.362;2022-12-05T07:17:19;6.10;68.00
6672;DHT22;3372;48.690;12.362;2022-12-05T07:19:49;6.20;67.80
6672;DHT22;3372;48.690;12.362;2022-12-05T07:22:19;6.00;68.40
6672;DHT22;3372;48.690;12.362;2022-12-05T07:24:45;6.10;68.30
6672;DHT22;3372;48.690;12.362;2022-12-05T07:27:11;6.10;68.10
6672;DHT22;3372;48.690;12.362;2022-12-05T07:29:37;6.10;68.30
6672;DHT22;3372;48.690;12.362;2022-12-05T07:32:03;6.00;68.90
6672;DHT22;3372;48.690;12.362;2022-12-05T07:34:28;5.80;68.70
6672;DHT22;3372;48.690;12.362;2022-12-05T07:36:54;5.90;68.20
6672;DHT22;3372;48.690;12.362;2022-12-05T07:39:20;5.70;68.10
6672;DHT22;3372;48.690;12.362;2022-12-05T07:41:45;5.70;68.10
6672;DHT22;3372;48.690;12.362;2022-12-05T07:44:11;5.70;69.40
6672;DHT22;3372;48.690;12.362;2022-12-05T07:46:38;5.80;69.30
6672;DHT22;3372;48.690;12.362;2022-12-05T07:49:04;5.60;69.80
6672;DHT22;3372;48.690;12.362;2022-12-05T07:51:30;5.70;69.10
6672;DHT22;3372;48.690;12.362;2022-12-05T07:53:57;5.80;68.70
6672;DHT22;3372;48.690;12.362;2022-12-05T07:56:23;5.70;69.00
6672;DHT22;3372;48.690;12.362;2022-12-05T07:58:49;5.70;68.80
6672;DHT22;3372;48.690;12.362;2022-12-05T08:01:23;5.90;68.80
6672;DHT22;3372;48.690;12.362;2022-12-05T08:03:51;5.80;68.30
6672;DHT22;3372;48.690;12.362;2022-12-05T08:06:20;6.10;68.30
6672;DHT22;3372;48.690;12.362;2022-12-05T08:08:46;6.10;68.80
6672;DHT22;3372;48.690;12.362;2022-12-05T08:11:21;5.90;68.20
6672;DHT22;3372;48.690;12.362;2022-12-05T08:13:47;5.70;68.00
6672;DHT22;3372;48.690;12.362;2022-12-05T08:16:24;5.70;68.30
6672;DHT22;3372;48.690;12.362;2022-12-05T08:18:59;5.70;69.40
6672;DHT22;3372;48.690;12.362;2022-12-05T08:21:25;5.60;69.10
6672;DHT22;3372;48.690;12.362;2022-12-05T08:23:51;5.40;69.10
6672;DHT22;3372;48.690;12.362;2022-12-05T08:26:19;5.60;69.60
6672;DHT22;3372;48.690;12.362;2022-12-05T08:28:46;5.70;69.30
6672;DHT22;3372;48.690;12.362;2022-12-05T08:31:16;5.70;69.10
6672;DHT22;3372;48.690;12.362;2022-12-05T08:33:42;5.70;69.20
6672;DHT22;3372;48.690;12.362;2022-12-05T08:36:11;5.70;69.00
6672;DHT22;3372;48.690;12.362;2022-12-05T08:38:37;5.70;68.50
6672;DHT22;3372;48.690;12.362;2022-12-05T08:41:05;5.90;68.60
6672;DHT22;3372;48.690;12.362;2022-12-05T08:43:31;6.10;68.90
6672;DHT22;3372;48.690;12.362;2022-12-05T08:45:57;6.10;68.60
6672;DHT22;3372;48.690;12.362;2022-12-05T08:48:24;6.00;68.30
6672;DHT22;3372;48.690;12.362;2022-12-05T08:50:49;5.90;68.20
6672;DHT22;3372;48.690;12.362;2022-12-05T08:53:15;5.90;68.20
6672;DHT22;3372;48.690;12.362;2022-12-05T08:55:41;6.00;68.30
6672;DHT22;3372;48.690;12.362;2022-12-05T08:58:07;6.30;68.50
6672;DHT22;3372;48.690;12.362;2022-12-05T09:00:33;6.00;68.30
6672;DHT22;3372;48.690;12.362;2022-12-05T09:02:59;6.30;68.60
6672;DHT22;3372;48.690;12.362;2022-12-05T09:05:25;6.10;67.90
6672;DHT22;3372;48.690;12.362;2022-12-05T09:07:51;6.30;68.10
6672;DHT22;3372;48.690;12.362;2022-12-05T09:10:17;6.20;68.40
6672;DHT22;3372;48.690;12.362;2022-12-05T09:12:43;6.30;67.70
6672;DHT22;3372;48.690;12.362;2022-12-05T09:15:10;6.20;67.30
6672;DHT22;3372;48.690;12.362;2022-12-05T09:17:37;6.00;65.30
6672;DHT22;3372;48.690;12.362;2022-12-05T09:20:04;5.80;67.20
6672;DHT22;3372;48.690;12.362;2022-12-05T09:22:30;6.00;68.30
6672;DHT22;3372;48.690;12.362;2022-12-05T09:24:56;6.20;68.40
6672;DHT22;3372;48.690;12.362;2022-12-05T09:27:21;6.30;67.80
6672;DHT22;3372;48.690;12.362;2022-12-05T09:29:47;6.20;67.70
6672;DHT22;3372;48.690;12.362;2022-12-05T09:32:12;6.40;68.00
6672;DHT22;3372;48.690;12.362;2022-12-05T09:34:38;6.40;67.90
6672;DHT22;3372;48.690;12.362;2022-12-05T09:37:05;6.20;67.20
6672;DHT22;3372;48.690;12.362;2022-12-05T09:39:31;6.30;66.60
6672;DHT22;3372;48.690;12.362;2022-12-05T09:45:22;6.50;66.80
6672;DHT22;3372;48.690;12.362;2022-12-05T09:48:06;6.30;67.40
6672;DHT22;3372;48.690;12.362;2022-12-05T09:50:48;6.40;67.90
6672;DHT22;3372;48.690;12.362;2022-12-05T09:53:29;6.20;67.90
6672;DHT22;3372;48.690;12.362;2022-12-05T10:09:35;6.20;68.50
6672;DHT22;3372;48.690;12.362;2022-12-05T10:15:09;6.10;70.50
6672;DHT22;3372;48.690;12.362;2022-12-05T10:17:39;6.00;70.20
6672;DHT22;3372;48.690;12.362;2022-12-05T10:20:38;6.00;71.30
6672;DHT22;3372;48.690;12.362;2022-12-05T10:23:30;6.10;70.90
6672;DHT22;3372;48.690;12.362;2022-12-05T10:25:58;5.70;71.20
6672;DHT22;3372;48.690;12.362;2022-12-05T10:28:36;5.90;71.80
6672;DHT22;3372;48.690;12.362;2022-12-05T10:31:08;5.80;71.40
6672;DHT22;3372;48.690;12.362;2022-12-05T10:33:39;5.90;71.50
6672;DHT22;3372;48.690;12.362;2022-12-05T10:36:13;5.90;71.50
6672;DHT22;3372;48.690;12.362;2022-12-05T10:38:41;6.00;72.00
6672;DHT22;3372;48.690;12.362;2022-12-05T10:41:09;5.80;72.40
6672;DHT22;3372;48.690;12.362;2022-12-05T10:43:37;6.20;72.00
6672;DHT22;3372;48.690;12.362;2022-12-05T10:46:04;6.20;71.10
6672;DHT22;3372;48.690;12.362;2022-12-05T10:48:34;6.20;71.00
6672;DHT22;3372;48.690;12.362;2022-12-05T10:51:04;6.30;71.00
6672;DHT22;3372;48.690;12.362;2022-12-05T10:53:42;6.40;71.30
6672;DHT22;3372;48.690;12.362;2022-12-05T10:59:36;6.30;68.60
6672;DHT22;3372;48.690;12.362;2022-12-05T11:05:01;6.40;68.70
6672;DHT22;3372;48.690;12.362;2022-12-05T11:07:37;6.30;69.60
6672;DHT22;3372;48.690;12.362;2022-12-05T11:10:22;6.50;70.10
6672;DHT22;3372;48.690;12.362;2022-12-05T11:12:48;6.60;70.20
6672;DHT22;3372;48.690;12.362;2022-12-05T11:17:48;6.50;68.70
6672;DHT22;3372;48.690;12.362;2022-12-05T11:22:47;6.60;68.80
6672;DHT22;3372;48.690;12.362;2022-12-05T11:30:59;6.60;68.80
6672;DHT22;3372;48.690;12.362;2022-12-05T11:33:27;6.70;68.90
6672;DHT22;3372;48.690;12.362;2022-12-05T11:38:35;6.80;68.60
6672;DHT22;3372;48.690;12.362;2022-12-05T12:05:52;7.00;68.10
6672;DHT22;3372;48.690;12.362;2022-12-05T12:08:49;6.80;67.40
6672;DHT22;3372;48.690;12.362;2022-12-05T12:22:37;7.10;68.50
6672;DHT22;3372;48.690;12.362;2022-12-05T12:28:36;7.00;68.00
6672;DHT22;3372;48.690;12.362;2022-12-05T12:36:58;7.00;67.40
6672;DHT22;3372;48.690;12.362;2022-12-05T12:39:50;7.10;68.10
6672;DHT22;3372;48.690;12.362;2022-12-05T12:42:24;7.10;67.60
6672;DHT22;3372;48.690;12.362;2022-12-05T12:45:20;7.10;67.80
6672;DHT22;3372;48.690;12.362;2022-12-05T12:55:40;7.10;68.00
6672;DHT22;3372;48.690;12.362;2022-12-05T13:03:41;7.20;68.30
6672;DHT22;3372;48.690;12.362;2022-12-05T13:07:02;7.20;68.20
6672;DHT22;3372;48.690;12.362;2022-12-05T13:09:21;7.20;68.60
6672;DHT22;3372;48.690;12.362;2022-12-05T13:11:49;7.40;68.90
6672;DHT22;3372;48.690;12.362;2022-12-05T13:14:17;7.30;68.70
6672;DHT22;3372;48.690;12.362;2022-12-05T13:16:50;7.40;68.70
6672;DHT22;3372;48.690;12.362;2022-12-05T13:21:47;7.40;68.60
6672;DHT22;3372;48.690;12.362;2022-12-05T13:24:15;7.40;68.50
6672;DHT22;3372;48.690;12.362;2022-12-05T13:26:48;7.30;69.00
6672;DHT22;3372;48.690;12.362;2022-12-05T13:29:26;7.30;68.80
6672;DHT22;3372;48.690;12.362;2022-12-05T13:31:53;7.30;68.10
6672;DHT22;3372;48.690;12.362;2022-12-05T13:37:00;7.20;67.70
6672;DHT22;3372;48.690;12.362;2022-12-05T13:39:53;7.40;69.80
6672;DHT22;3372;48.690;12.362;2022-12-05T13:42:38;7.30;69.40
6672;DHT22;3372;48.690;12.362;2022-12-05T13:47:49;7.50;69.10
6672;DHT22;3372;48.690;12.362;2022-12-05T13:50:28;7.40;68.90
6672;DHT22;3372;48.690;12.362;2022-12-05T13:55:53;7.30;69.40
6672;DHT22;3372;48.690;12.362;2022-12-05T14:00:44;7.30;69.10
6672;DHT22;3372;48.690;12.362;2022-12-05T14:06:00;7.20;69.10
6672;DHT22;3372;48.690;12.362;2022-12-05T14:24:56;7.00;69.00
6672;DHT22;3372;48.690;12.362;2022-12-05T14:27:48;7.10;68.90
6672;DHT22;3372;48.690;12.362;2022-12-05T14:33:21;7.20;69.10
6672;DHT22;3372;48.690;12.362;2022-12-05T14:35:48;7.30;69.20
6672;DHT22;3372;48.690;12.362;2022-12-05T14:38:30;7.30;69.10
6672;DHT22;3372;48.690;12.362;2022-12-05T14:41:09;7.40;69.20
6672;DHT22;3372;48.690;12.362;2022-12-05T14:43:36;7.40;68.80
6672;DHT22;3372;48.690;12.362;2022-12-05T14:46:06;7.40;68.90
6672;DHT22;3372;48.690;12.362;2022-12-05T14:48:35;7.20;68.90
6672;DHT22;3372;48.690;12.362;2022-12-05T14:51:01;7.40;68.90
6672;DHT22;3372;48.690;12.362;2022-12-05T14:53:47;7.60;68.90
6672;DHT22;3372;48.690;12.362;2022-12-05T14:56:20;7.50;69.20
6672;DHT22;3372;48.690;12.362;2022-12-05T15:01:49;7.30;69.00
6672;DHT22;3372;48.690;12.362;2022-12-05T15:04:40;7.50;68.80
6672;DHT22;3372;48.690;12.362;2022-12-05T15:07:21;7.60;69.30
6672;DHT22;3372;48.690;12.362;2022-12-05T15:10:01;7.50;68.90
6672;DHT22;3372;48.690;12.362;2022-12-05T15:15:06;7.30;69.40
6672;DHT22;3372;48.690;12.362;2022-12-05T15:17:55;7.40;69.50
6672;DHT22;3372;48.690;12.362;2022-12-05T15:42:43;7.40;70.10
6672;DHT22;3372;48.690;12.362;2022-12-05T15:47:49;7.40;70.10
6672;DHT22;3372;48.690;12.362;2022-12-05T15:50:37;7.40;69.50
6672;DHT22;3372;48.690;12.362;2022-12-05T15:53:37;7.30;69.40
6672;DHT22;3372;48.690;12.362;2022-12-05T15:56:25;7.20;69.40
6672;DHT22;3372;48.690;12.362;2022-12-05T15:58:58;7.20;69.30
6672;DHT22;3372;48.690;12.362;2022-12-05T16:01:27;7.30;69.50
6672;DHT22;3372;48.690;12.362;2022-12-05T16:04:22;7.40;70.00
6672;DHT22;3372;48.690;12.362;2022-12-05T16:06:52;7.50;70.30
6672;DHT22;3372;48.690;12.362;2022-12-05T16:09:21;7.40;70.20
6672;DHT22;3372;48.690;12.362;2022-12-05T16:14:54;7.30;69.60
6672;DHT22;3372;48.690;12.362;2022-12-05T16:17:21;7.40;69.50
6672;DHT22;3372;48.690;12.362;2022-12-05T16:19:47;7.40;69.50
6672;DHT22;3372;48.690;12.362;2022-12-05T16:24:53;7.40;69.50
6672;DHT22;3372;48.690;12.362;2022-12-05T16:27:25;7.30;70.00
6672;DHT22;3372;48.690;12.362;2022-12-05T16:32:41;7.50;70.10
6672;DHT22;3372;48.690;12.362;2022-12-05T16:38:08;7.20;70.20
6672;DHT22;3372;48.690;12.362;2022-12-05T16:40:34;7.30;70.40
6672;DHT22;3372;48.690;12.362;2022-12-05T16:43:05;7.50;70.30
6672;DHT22;3372;48.690;12.362;2022-12-05T16:45:43;7.40;71.10
6672;DHT22;3372;48.690;12.362;2022-12-05T16:48:38;7.50;71.00
6672;DHT22;3372;48.690;12.362;2022-12-05T16:51:17;7.50;70.50
6672;DHT22;3372;48.690;12.362;2022-12-05T16:53:45;7.50;70.70
6672;DHT22;3372;48.690;12.362;2022-12-05T16:56:15;7.30;70.80
6672;DHT22;3372;48.690;12.362;2022-12-05T16:58:41;7.40;70.70
6672;DHT22;3372;48.690;12.362;2022-12-05T17:01:18;7.40;70.40
6672;DHT22;3372;48.690;12.362;2022-12-05T17:03:44;7.30;70.70
6672;DHT22;3372;48.690;12.362;2022-12-05T17:06:11;7.40;71.20
6672;DHT22;3372;48.690;12.362;2022-12-05T17:08:36;7.30;70.90
6672;DHT22;3372;48.690;12.362;2022-12-05T17:11:02;7.40;71.20
6672;DHT22;3372;48.690;12.362;2022-12-05T17:13:30;7.50;70.80
6672;DHT22;3372;48.690;12.362;2022-12-05T17:15:57;7.40;70.70
6672;DHT22;3372;48.690;12.362;2022-12-05T17:18:22;7.50;70.50
6672;DHT22;3372;48.690;12.362;2022-12-05T17:20:53;7.30;70.20
6672;DHT22;3372;48.690;12.362;2022-12-05T17:23:20;7.20;70.20
6672;DHT22;3372;48.690;12.362;2022-12-05T17:25:51;7.40;70.50
6672;DHT22;3372;48.690;12.362;2022-12-05T17:28:18;7.40;70.90
6672;DHT22;3372;48.690;12.362;2022-12-05T17:30:43;7.50;70.70
6672;DHT22;3372;48.690;12.362;2022-12-05T17:33:11;7.50;70.70
6672;DHT22;3372;48.690;12.362;2022-12-05T17:35:37;7.60;70.60
6672;DHT22;3372;48.690;12.362;2022-12-05T17:38:03;7.30;70.30
6672;DHT22;3372;48.690;12.362;2022-12-05T17:40:30;7.50;70.60
6672;DHT22;3372;48.690;12.362;2022-12-05T17:42:56;7.50;70.80
6672;DHT22;3372;48.690;12.362;2022-12-05T17:45:21;7.30;70.60
6672;DHT22;3372;48.690;12.362;2022-12-05T17:47:47;7.40;70.40
6672;DHT22;3372;48.690;12.362;2022-12-05T17:50:18;7.70;70.40
6672;DHT22;3372;48.690;12.362;2022-12-05T17:52:45;7.50;70.50
6672;DHT22;3372;48.690;12.362;2022-12-05T17:55:29;7.60;70.50
6672;DHT22;3372;48.690;12.362;2022-12-05T17:57:55;7.50;70.40
6672;DHT22;3372;48.690;12.362;2022-12-05T18:00:22;7.50;70.40
6672;DHT22;3372;48.690;12.362;2022-12-05T18:02:49;7.50;70.50
6672;DHT22;3372;48.690;12.362;2022-12-05T18:05:15;7.30;70.50
6672;DHT22;3372;48.690;12.362;2022-12-05T18:07:42;7.40;70.60
6672;DHT22;3372;48.690;12.362;2022-12-05T18:10:10;7.60;71.20
6672;DHT22;3372;48.690;12.362;2022-12-05T18:12:37;7.40;71.30
6672;DHT22;3372;48.690;12.362;2022-12-05T18:15:03;7.50;71.20
6672;DHT22;3372;48.690;12.362;2022-12-05T18:17:29;7.60;71.60
6672;DHT22;3372;48.690;12.362;2022-12-05T18:19:55;7.40;71.10
6672;DHT22;3372;48.690;12.362;2022-12-05T18:22:22;7.60;70.80
6672;DHT22;3372;48.690;12.362;2022-12-05T18:24:48;7.40;70.40
6672;DHT22;3372;48.690;12.362;2022-12-05T18:27:14;7.60;70.70
6672;DHT22;3372;48.690;12.362;2022-12-05T18:29:40;7.50;70.40
6672;DHT22;3372;48.690;12.362;2022-12-05T18:32:06;7.60;70.90
6672;DHT22;3372;48.690;12.362;2022-12-05T18:34:31;7.50;71.00
6672;DHT22;3372;48.690;12.362;2022-12-05T18:36:57;7.50;71.10
6672;DHT22;3372;48.690;12.362;2022-12-05T18:39:22;7.50;70.60
6672;DHT22;3372;48.690;12.362;2022-12-05T18:41:48;7.60;71.00
6672;DHT22;3372;48.690;12.362;2022-12-05T18:44:14;7.60;70.70
6672;DHT22;3372;48.690;12.362;2022-12-05T18:46:43;7.40;72.60
6672;DHT22;3372;48.690;12.362;2022-12-05T18:49:11;7.40;72.10
6672;DHT22;3372;48.690;12.362;2022-12-05T18:51:37;7.40;72.10
6672;DHT22;3372;48.690;12.362;2022-12-05T18:54:03;7.30;72.20
6672;DHT22;3372;48.690;12.362;2022-12-05T18:56:30;7.60;72.10
6672;DHT22;3372;48.690;12.362;2022-12-05T18:59:13;7.40;71.30
6672;DHT22;3372;48.690;12.362;2022-12-05T19:01:39;7.10;71.20
6672;DHT22;3372;48.690;12.362;2022-12-05T19:04:14;7.10;72.00
6672;DHT22;3372;48.690;12.362;2022-12-05T19:06:52;6.90;72.20
6672;DHT22;3372;48.690;12.362;2022-12-05T19:09:20;7.10;71.80
6672;DHT22;3372;48.690;12.362;2022-12-05T19:11:49;6.70;72.90
6672;DHT22;3372;48.690;12.362;2022-12-05T19:14:16;6.90;72.90
6672;DHT22;3372;48.690;12.362;2022-12-05T19:16:44;7.10;72.40
6672;DHT22;3372;48.690;12.362;2022-12-05T19:19:12;7.00;72.20
6672;DHT22;3372;48.690;12.362;2022-12-05T19:21:38;6.90;72.00
6672;DHT22;3372;48.690;12.362;2022-12-05T19:24:05;7.10;71.90
6672;DHT22;3372;48.690;12.362;2022-12-05T19:26:31;6.80;73.30
6672;DHT22;3372;48.690;12.362;2022-12-05T19:28:57;6.90;73.10
6672;DHT22;3372;48.690;12.362;2022-12-05T19:31:25;7.20;73.40
6672;DHT22;3372;48.690;12.362;2022-12-05T19:33:53;7.00;73.10
6672;DHT22;3372;48.690;12.362;2022-12-05T19:36:31;6.90;72.90
6672;DHT22;3372;48.690;12.362;2022-12-05T19:38:57;7.10;73.50
6672;DHT22;3372;48.690;12.362;2022-12-05T19:41:26;7.20;72.70
6672;DHT22;3372;48.690;12.362;2022-12-05T19:43:53;7.10;73.80
6672;DHT22;3372;48.690;12.362;2022-12-05T19:46:23;7.20;74.20
6672;DHT22;3372;48.690;12.362;2022-12-05T19:48:50;7.10;73.50
6672;DHT22;3372;48.690;12.362;2022-12-05T19:51:18;7.20;73.90
6672;DHT22;3372;48.690;12.362;2022-12-05T19:53:44;7.10;73.60
6672;DHT22;3372;48.690;12.362;2022-12-05T19:56:18;7.10;73.80
6672;DHT22;3372;48.690;12.362;2022-12-05T19:58:48;7.10;72.60
6672;DHT22;3372;48.690;12.362;2022-12-05T20:01:40;7.00;72.40
6672;DHT22;3372;48.690;12.362;2022-12-05T20:04:08;7.20;72.70
6672;DHT22;3372;48.690;12.362;2022-12-05T20:06:38;7.20;73.20